Ana Sayfa
METAR-TAF:

METAR-TAF

Havaalanları :

Georgetown, Ascension Adası

Enlem: 07-58S, Boylam: 014-24W, yükseklik: 86 m

Güncel hava durumu gözlemi

Rapor saat 16:50 UTC de 8 saat ve 21 dakika önce yapıldı.
Rüzgar güneydoğudan 15 kt
Sıcaklık 27°C
Nem 58%
Basınç 1016 hPa
Görüş mesafesi 10 km veya daha fazla
3000 ft yükseklikte az bulutlu

METAR: FHAW 131650Z 14015KT 9999 FEW030 27/18 Q1016 NOSIG RMK BLU BLU

Saat: 01:11 (01:11 UTC)

Tahmin

Rapor saat 14:24 UTC de 10 saat ve 47 dakika önce yapıldı.
Ayın 13'si saat 15 UTC'den ayın 14'si saat 09 UTC'ye kadar geçerli Tahmin
Rüzgar güneydoğudan 15 kt
Görüş mesafesi 10 km veya daha fazla
3500 ft yükseklikte az bulutlu
Olasılık 40% :
Geçici
ayın 13'si saat 20 UTC'den ayın 14'si saat 09 UTC'ye kadar
Görüş mesafesi: 7000 m
1800 ft yükseklikte parçalı bulutlu
hafif sağanak yağmurlar,

TAF: FHAW 131424Z 1315/1409 14015KT 9999 FEW035 PROB40 TEMPO 1320/1409 7000 -SHRA SCT018

4.000'den fazla havaalanı için hava durumu gözlemleri ve tahminleri (METAR ve TAF raporları).

Kullanılabilir istasyonlar harita üzerinde sarı ve kırmızı noktalarla gösterilir.

İstasyonun adını görmek için fareyi noktanın üzerinde gezdirin.

Sonrasında hava gözlem ve tahminlerini görmek için tıklayın.

Haritayı değiştirmek için: yaklaştırmak için siyah artı işaretli yeşil düğmeye ve uzaklaştırmak için de eksi işaretli düğmeye hızla tıklayın; bitişik haritalar için yeşil okları kullanın.


METAR-TAF: